createdAt,value
2019-06-27T00:00:28.687Z,17.37
2019-06-27T00:02:57.089Z,17.32
2019-06-27T00:05:25.611Z,17.37
2019-06-27T00:07:54.069Z,17.29
2019-06-27T00:10:23.306Z,17.25
2019-06-27T00:12:51.754Z,17.26
2019-06-27T00:15:20.168Z,17.10
2019-06-27T00:17:48.674Z,17.22
2019-06-27T00:20:17.255Z,17.06
2019-06-27T00:22:46.097Z,17.06
2019-06-27T00:25:14.681Z,17.09
2019-06-27T00:27:43.126Z,17.09
2019-06-27T00:30:13.385Z,17.02
2019-06-27T00:32:41.834Z,16.99
2019-06-27T00:35:10.683Z,17.05
2019-06-27T00:37:39.122Z,17.03
2019-06-27T00:40:08.400Z,17.05
2019-06-27T00:42:36.810Z,17.13
2019-06-27T00:45:06.791Z,17.06
2019-06-27T00:47:35.207Z,16.97
2019-06-27T00:50:09.324Z,17.10
2019-06-27T00:52:37.860Z,17.10
2019-06-27T00:55:07.308Z,17.08
2019-06-27T00:57:36.060Z,16.95
2019-06-27T01:00:07.759Z,16.95
2019-06-27T01:02:36.260Z,16.97
2019-06-27T01:05:06.638Z,16.84
2019-06-27T01:07:35.125Z,16.87
2019-06-27T01:10:05.303Z,16.86
2019-06-27T01:12:33.805Z,16.69
2019-06-27T01:15:02.315Z,16.76
2019-06-27T01:17:31.109Z,16.83
2019-06-27T01:19:59.537Z,16.81
2019-06-27T01:22:27.958Z,16.89
2019-06-27T01:24:56.462Z,16.82
2019-06-27T01:27:29.999Z,16.81
2019-06-27T01:29:55.029Z,16.82
2019-06-27T01:32:23.470Z,16.77
2019-06-27T01:34:51.891Z,16.76
2019-06-27T01:37:20.311Z,16.75
2019-06-27T01:39:48.748Z,16.71
2019-06-27T01:42:17.164Z,16.66
2019-06-27T01:44:52.964Z,16.69
2019-06-27T01:47:21.371Z,16.72
2019-06-27T01:49:49.783Z,16.64
2019-06-27T01:52:18.225Z,16.64
2019-06-27T01:54:46.737Z,16.70
2019-06-27T01:57:15.159Z,16.69
2019-06-27T01:59:43.598Z,16.60
2019-06-27T02:02:12.066Z,16.63
2019-06-27T02:04:40.522Z,16.65
2019-06-27T02:07:09.004Z,16.63
2019-06-27T02:09:37.437Z,16.59
2019-06-27T02:12:05.964Z,16.65
2019-06-27T02:14:34.385Z,16.49
2019-06-27T02:17:02.820Z,16.55
2019-06-27T02:19:31.253Z,16.59
2019-06-27T02:21:59.679Z,16.61
2019-06-27T02:24:28.125Z,16.59
2019-06-27T02:26:56.542Z,16.50
2019-06-27T02:29:24.987Z,16.46
2019-06-27T02:31:53.424Z,16.47
2019-06-27T02:34:21.839Z,16.39
2019-06-27T02:36:50.301Z,16.44
2019-06-27T02:39:19.011Z,16.39
2019-06-27T02:41:47.490Z,16.31
2019-06-27T02:44:15.925Z,16.33
2019-06-27T02:46:44.353Z,16.38
2019-06-27T02:49:12.854Z,16.31
2019-06-27T02:51:41.325Z,16.07
2019-06-27T02:54:09.742Z,16.06
2019-06-27T02:56:38.200Z,16.01
2019-06-27T02:59:06.637Z,16.05
2019-06-27T03:01:35.099Z,16.04
2019-06-27T03:04:03.541Z,16.02
2019-06-27T03:06:31.951Z,16.07
2019-06-27T03:09:00.445Z,16.03
2019-06-27T03:11:28.867Z,16.08
2019-06-27T03:13:57.292Z,15.91
2019-06-27T03:16:25.734Z,15.84
2019-06-27T03:18:54.175Z,15.78
2019-06-27T03:21:22.597Z,15.79
2019-06-27T03:23:51.095Z,15.67
2019-06-27T03:26:19.549Z,15.64
2019-06-27T03:28:53.087Z,15.53
2019-06-27T03:31:18.144Z,15.66
2019-06-27T03:33:46.544Z,15.48
2019-06-27T03:36:15.008Z,15.54
2019-06-27T03:38:43.433Z,15.47
2019-06-27T03:41:11.979Z,15.54
2019-06-27T03:43:40.407Z,15.48
2019-06-27T03:46:08.835Z,15.40
2019-06-27T03:48:37.239Z,15.45
2019-06-27T03:51:05.667Z,15.32
2019-06-27T03:53:34.128Z,15.39
2019-06-27T03:56:02.557Z,15.36
2019-06-27T03:58:31.005Z,15.15
2019-06-27T04:00:59.391Z,15.26
2019-06-27T04:03:27.837Z,15.15
2019-06-27T04:05:56.321Z,15.13
2019-06-27T04:08:24.797Z,15.19
2019-06-27T04:10:53.303Z,15.22
2019-06-27T04:13:21.728Z,15.26
2019-06-27T04:15:50.169Z,15.33
2019-06-27T04:18:18.591Z,15.40
2019-06-27T04:20:47.028Z,15.36
2019-06-27T04:23:15.466Z,15.28
2019-06-27T04:25:43.867Z,15.37
2019-06-27T04:28:12.372Z,15.41
2019-06-27T04:30:40.798Z,15.55
2019-06-27T04:33:09.236Z,15.53
2019-06-27T04:35:37.666Z,15.51
2019-06-27T04:38:06.151Z,15.48
2019-06-27T04:40:34.565Z,15.59
2019-06-27T04:43:05.808Z,15.44
2019-06-27T04:45:33.144Z,15.58
2019-06-27T04:48:01.552Z,15.43
2019-06-27T04:50:29.991Z,15.57
2019-06-27T04:52:58.410Z,15.67
2019-06-27T04:55:26.839Z,15.61
2019-06-27T04:57:55.267Z,15.45
2019-06-27T05:00:29.165Z,15.50
2019-06-27T05:02:57.834Z,15.54
2019-06-27T05:05:26.406Z,15.78
2019-06-27T05:07:55.006Z,16.09
2019-06-27T05:10:23.469Z,16.57
2019-06-27T05:12:52.339Z,16.59
2019-06-27T05:15:20.750Z,16.66
2019-06-27T05:17:49.188Z,16.71
2019-06-27T05:20:17.689Z,16.58
2019-06-27T05:22:46.174Z,16.14
2019-06-27T05:25:14.675Z,16.28
2019-06-27T05:27:43.180Z,16.32
2019-06-27T05:30:13.765Z,16.33
2019-06-27T05:32:42.288Z,16.38
2019-06-27T05:35:10.746Z,16.32
2019-06-27T05:37:39.194Z,16.07
2019-06-27T05:40:08.812Z,16.03
2019-06-27T05:42:37.236Z,16.45
2019-06-27T05:45:06.902Z,16.53
2019-06-27T05:47:35.389Z,16.42
2019-06-27T05:50:06.322Z,16.57
2019-06-27T05:52:34.707Z,16.52
2019-06-27T05:55:03.382Z,16.36
2019-06-27T05:57:31.819Z,16.61
2019-06-27T06:00:00.247Z,16.66
2019-06-27T06:02:28.683Z,16.81
2019-06-27T06:04:57.125Z,16.61
2019-06-27T06:07:25.609Z,16.69
2019-06-27T06:09:54.098Z,16.54
2019-06-27T06:12:22.616Z,16.74
2019-06-27T06:14:50.993Z,16.53
2019-06-27T06:17:19.431Z,17.29
2019-06-27T06:19:47.850Z,17.89
2019-06-27T06:22:16.255Z,18.48
2019-06-27T06:24:44.697Z,18.75
2019-06-27T06:27:13.125Z,18.36
2019-06-27T06:29:41.567Z,18.36
2019-06-27T06:32:10.055Z,18.95
2019-06-27T06:34:38.487Z,19.23
2019-06-27T06:37:08.177Z,19.33
2019-06-27T06:39:36.709Z,18.84
2019-06-27T06:42:05.217Z,19.16
2019-06-27T06:44:33.643Z,19.39
2019-06-27T06:47:02.064Z,19.49
2019-06-27T06:49:30.553Z,19.28
2019-06-27T06:51:58.984Z,19.11
2019-06-27T06:54:27.400Z,18.70
2019-06-27T06:56:55.815Z,18.36
2019-06-27T06:59:24.239Z,18.70
2019-06-27T07:01:52.662Z,18.51
2019-06-27T07:04:21.101Z,18.51
2019-06-27T07:06:50.009Z,18.37
2019-06-27T07:09:18.535Z,18.64
2019-06-27T07:11:46.949Z,18.47
2019-06-27T07:14:15.375Z,18.70
2019-06-27T07:16:43.818Z,18.89
2019-06-27T07:19:12.207Z,18.70
2019-06-27T07:21:40.632Z,18.69
2019-06-27T07:24:09.071Z,18.89
2019-06-27T07:26:37.509Z,19.01
2019-06-27T07:29:05.942Z,19.01
2019-06-27T07:31:34.374Z,19.06
2019-06-27T07:34:02.805Z,19.80
2019-06-27T07:36:31.210Z,20.10
2019-06-27T07:38:59.648Z,19.73
2019-06-27T07:41:28.062Z,20.27
2019-06-27T07:43:56.644Z,20.27
2019-06-27T07:46:26.050Z,20.45
2019-06-27T07:48:54.756Z,19.54
2019-06-27T07:51:23.186Z,19.92
2019-06-27T07:53:51.595Z,20.11
2019-06-27T07:56:20.013Z,20.38
2019-06-27T07:58:48.442Z,20.28
2019-06-27T08:01:33.700Z,20.16
2019-06-27T08:03:47.027Z,20.37
2019-06-27T08:06:15.459Z,20.45
2019-06-27T08:08:43.892Z,20.57
2019-06-27T08:11:12.317Z,20.46
2019-06-27T08:13:40.727Z,20.63
2019-06-27T08:16:09.164Z,20.76
2019-06-27T08:18:37.577Z,20.36
2019-06-27T08:21:06.561Z,20.22
2019-06-27T08:23:41.531Z,19.73
2019-06-27T08:26:05.199Z,19.74
2019-06-27T08:28:33.644Z,19.78
2019-06-27T08:31:02.095Z,19.88
2019-06-27T08:33:30.537Z,19.39
2019-06-27T08:35:58.962Z,19.39
2019-06-27T08:38:27.389Z,19.17
2019-06-27T08:40:55.788Z,19.54
2019-06-27T08:43:24.236Z,19.22
2019-06-27T08:45:52.648Z,19.22
2019-06-27T08:48:21.057Z,19.48
2019-06-27T08:50:49.582Z,19.46
2019-06-27T08:53:18.001Z,19.57
2019-06-27T08:55:46.479Z,19.57
2019-06-27T08:58:14.902Z,19.57
2019-06-27T09:00:45.889Z,19.82
2019-06-27T09:03:13.529Z,19.59
2019-06-27T09:05:41.922Z,19.79
2019-06-27T09:08:10.348Z,20.00
2019-06-27T09:10:38.761Z,19.88
2019-06-27T09:13:07.221Z,19.93
2019-06-27T09:15:35.632Z,20.00
2019-06-27T09:18:04.081Z,19.83
2019-06-27T09:20:32.545Z,20.12
2019-06-27T09:23:00.981Z,19.92
2019-06-27T09:25:29.424Z,20.06
2019-06-27T09:27:57.849Z,20.02
2019-06-27T09:30:26.412Z,20.10
2019-06-27T09:32:55.121Z,20.10
2019-06-27T09:35:25.099Z,19.95
2019-06-27T09:37:53.529Z,19.93
2019-06-27T09:40:23.391Z,20.21
2019-06-27T09:42:51.837Z,20.18
2019-06-27T09:45:21.407Z,20.12
2019-06-27T09:47:49.957Z,20.28
2019-06-27T09:50:21.522Z,20.36
2019-06-27T09:52:48.629Z,20.53
2019-06-27T09:55:17.987Z,20.55
2019-06-27T09:57:46.410Z,20.66
2019-06-27T10:00:15.682Z,20.66
2019-06-27T10:02:44.114Z,20.60
2019-06-27T10:05:13.225Z,20.61
2019-06-27T10:07:41.724Z,20.78
2019-06-27T10:10:10.387Z,20.75
2019-06-27T10:12:42.704Z,20.75
2019-06-27T10:15:10.095Z,20.96
2019-06-27T10:17:38.524Z,20.87
2019-06-27T10:20:08.308Z,20.96
2019-06-27T10:22:36.788Z,21.10
2019-06-27T10:25:06.845Z,21.01
2019-06-27T10:27:35.299Z,21.23
2019-06-27T10:30:05.755Z,21.11
2019-06-27T10:32:34.171Z,21.31
2019-06-27T10:35:02.744Z,21.34
2019-06-27T10:37:31.201Z,21.65
2019-06-27T10:39:59.673Z,21.70
2019-06-27T10:42:28.191Z,21.73
2019-06-27T10:44:56.619Z,21.75
2019-06-27T10:47:25.045Z,21.80
2019-06-27T10:49:53.456Z,21.59
2019-06-27T10:52:21.910Z,21.75
2019-06-27T10:54:50.327Z,21.77
2019-06-27T10:57:18.732Z,21.87
2019-06-27T10:59:47.209Z,21.91
2019-06-27T11:02:15.629Z,21.69
2019-06-27T11:04:44.040Z,21.86
2019-06-27T11:07:12.479Z,21.99
2019-06-27T11:09:40.872Z,21.90
2019-06-27T11:12:09.297Z,21.97
2019-06-27T11:14:37.760Z,22.00
2019-06-27T11:17:06.140Z,21.86
2019-06-27T11:19:34.574Z,21.98
2019-06-27T11:22:02.996Z,22.09
2019-06-27T11:24:31.414Z,22.33
2019-06-27T11:26:59.862Z,22.40
2019-06-27T11:29:28.265Z,22.16
2019-06-27T11:31:56.711Z,22.19
2019-06-27T11:34:25.148Z,22.34
2019-06-27T11:36:53.556Z,22.41
2019-06-27T11:39:23.351Z,22.30
2019-06-27T11:41:52.238Z,22.58
2019-06-27T11:44:20.654Z,22.54
2019-06-27T11:46:49.101Z,22.29
2019-06-27T11:49:17.511Z,22.24
2019-06-27T11:51:46.009Z,22.24
2019-06-27T11:54:14.452Z,22.26
2019-06-27T11:56:42.875Z,22.23
2019-06-27T11:59:11.293Z,22.40
2019-06-27T12:01:39.733Z,22.20
2019-06-27T12:04:08.121Z,22.35
2019-06-27T12:06:36.547Z,22.28
2019-06-27T12:09:08.996Z,22.49
2019-06-27T12:11:37.399Z,22.49
2019-06-27T12:14:05.835Z,22.51
2019-06-27T12:16:34.260Z,22.63
2019-06-27T12:19:02.760Z,22.69
2019-06-27T12:21:31.162Z,22.67
2019-06-27T12:23:59.575Z,22.50
2019-06-27T12:26:28.000Z,22.54
2019-06-27T12:28:56.399Z,22.59
2019-06-27T12:31:25.178Z,22.61
2019-06-27T12:34:06.113Z,22.59
2019-06-27T12:36:23.764Z,22.71
2019-06-27T12:38:52.268Z,22.86
2019-06-27T12:41:20.725Z,22.58
2019-06-27T12:43:49.151Z,22.45
2019-06-27T12:46:17.575Z,22.62
2019-06-27T12:48:48.768Z,22.50
2019-06-27T12:51:17.194Z,22.57
2019-06-27T12:53:45.701Z,22.65
2019-06-27T12:56:14.595Z,22.55
2019-06-27T12:58:42.998Z,22.38
2019-06-27T13:01:11.419Z,22.53
2019-06-27T13:03:42.768Z,22.35
2019-06-27T13:06:11.212Z,22.60
2019-06-27T13:08:39.693Z,22.49
2019-06-27T13:11:08.130Z,22.55
2019-06-27T13:13:36.572Z,22.57
2019-06-27T13:16:05.054Z,22.58
2019-06-27T13:18:33.501Z,22.52
2019-06-27T13:21:02.010Z,22.53
2019-06-27T13:23:30.477Z,22.31
2019-06-27T13:25:58.906Z,22.41
2019-06-27T13:28:27.345Z,22.56
2019-06-27T13:30:56.128Z,22.24
2019-06-27T13:33:24.618Z,22.42
2019-06-27T13:35:53.047Z,22.45
2019-06-27T13:38:21.465Z,22.27
2019-06-27T13:40:49.957Z,22.43
2019-06-27T13:43:18.449Z,22.57
2019-06-27T13:45:46.874Z,22.45
2019-06-27T13:48:15.303Z,22.59
2019-06-27T13:50:43.842Z,22.45
2019-06-27T13:53:12.287Z,22.39
2019-06-27T13:55:40.705Z,22.33
2019-06-27T13:58:09.397Z,22.26
2019-06-27T14:00:47.113Z,22.17
2019-06-27T14:03:15.553Z,22.41
2019-06-27T14:05:44.029Z,22.50
2019-06-27T14:08:12.508Z,22.22
2019-06-27T14:10:40.949Z,22.14
2019-06-27T14:13:09.382Z,22.33
2019-06-27T14:15:37.862Z,22.40
2019-06-27T14:18:06.308Z,22.31
2019-06-27T14:20:34.723Z,22.23
2019-06-27T14:23:03.184Z,22.26
2019-06-27T14:25:31.688Z,22.34
2019-06-27T14:28:00.148Z,22.34
2019-06-27T14:30:28.641Z,22.36
2019-06-27T14:32:57.092Z,22.41
2019-06-27T14:35:25.501Z,22.46
2019-06-27T14:37:53.925Z,22.36
2019-06-27T14:40:22.677Z,22.45
2019-06-27T14:42:51.177Z,22.33
2019-06-27T14:45:19.847Z,22.41
2019-06-27T14:47:49.035Z,22.43
2019-06-27T14:50:17.572Z,22.49
2019-06-27T14:52:45.999Z,22.34
2019-06-27T14:55:15.055Z,22.21
2019-06-27T14:57:43.481Z,22.27
2019-06-27T15:00:12.281Z,22.18
2019-06-27T15:02:40.748Z,22.34
2019-06-27T15:05:11.195Z,22.31
2019-06-27T15:07:39.633Z,22.28
2019-06-27T15:10:09.399Z,22.24
2019-06-27T15:12:38.051Z,22.23
2019-06-27T15:15:07.507Z,22.25
2019-06-27T15:17:35.928Z,22.29
2019-06-27T15:20:08.861Z,22.20
2019-06-27T15:22:37.334Z,22.16
2019-06-27T15:25:07.608Z,22.14
2019-06-27T15:27:36.116Z,22.27
2019-06-27T15:30:09.482Z,22.17
2019-06-27T15:32:37.970Z,22.07
2019-06-27T15:35:07.121Z,22.03
2019-06-27T15:37:35.666Z,22.08
2019-06-27T15:40:06.025Z,21.96
2019-06-27T15:42:34.537Z,21.84
2019-06-27T15:45:09.555Z,21.84
2019-06-27T15:47:38.096Z,21.93
2019-06-27T15:50:07.152Z,22.01
2019-06-27T15:52:35.568Z,21.98
2019-06-27T15:55:10.808Z,21.87
2019-06-27T15:57:37.961Z,21.91
2019-06-27T16:00:08.135Z,21.72
2019-06-27T16:02:37.118Z,21.83
2019-06-27T16:05:06.134Z,21.78
2019-06-27T16:07:34.659Z,21.60
2019-06-27T16:10:03.890Z,21.67
2019-06-27T16:12:32.304Z,21.72
2019-06-27T16:15:00.748Z,21.37
2019-06-27T16:17:29.213Z,21.47
2019-06-27T16:19:57.630Z,21.47
2019-06-27T16:22:26.154Z,21.37
2019-06-27T16:24:54.614Z,21.46
2019-06-27T16:27:23.036Z,21.34
2019-06-27T16:29:51.452Z,21.37
2019-06-27T16:32:19.892Z,21.42
2019-06-27T16:34:48.303Z,21.23
2019-06-27T16:37:16.865Z,21.05
2019-06-27T16:39:45.342Z,20.94
2019-06-27T16:42:13.742Z,21.04
2019-06-27T16:44:42.261Z,21.00
2019-06-27T16:47:10.891Z,20.98
2019-06-27T16:49:39.272Z,20.92
2019-06-27T16:52:07.694Z,21.02
2019-06-27T16:54:36.236Z,20.86
2019-06-27T16:57:04.843Z,20.94
2019-06-27T16:59:33.511Z,20.80
2019-06-27T17:02:02.049Z,20.73
2019-06-27T17:04:30.676Z,20.56
2019-06-27T17:06:59.097Z,20.69
2019-06-27T17:09:27.814Z,20.61
2019-06-27T17:11:56.372Z,20.65
2019-06-27T17:14:24.792Z,20.56
2019-06-27T17:16:53.214Z,20.48
2019-06-27T17:19:21.927Z,20.59
2019-06-27T17:21:50.343Z,20.49
2019-06-27T17:24:19.176Z,20.50
2019-06-27T17:26:47.610Z,20.52
2019-06-27T17:29:16.037Z,20.36
2019-06-27T17:31:46.073Z,20.36
2019-06-27T17:34:14.519Z,20.29
2019-06-27T17:36:56.542Z,20.29
2019-06-27T17:39:13.250Z,20.14
2019-06-27T17:41:41.643Z,20.14
2019-06-27T17:44:10.089Z,20.05
2019-06-27T17:46:38.592Z,20.05
2019-06-27T17:49:06.986Z,19.99
2019-06-27T17:51:35.493Z,19.99
2019-06-27T17:54:03.972Z,20.00
2019-06-27T17:56:32.455Z,20.00
2019-06-27T17:59:00.963Z,19.99
2019-06-27T18:01:29.901Z,19.93
2019-06-27T18:03:58.325Z,19.82
2019-06-27T18:06:26.747Z,19.82
2019-06-27T18:08:55.243Z,19.78
2019-06-27T18:11:23.727Z,19.78
2019-06-27T18:13:52.126Z,19.83
2019-06-27T18:16:20.557Z,19.80
2019-06-27T18:18:49.000Z,19.80
2019-06-27T18:21:17.490Z,19.68
2019-06-27T18:23:45.921Z,19.56
2019-06-27T18:26:14.343Z,19.56
2019-06-27T18:28:42.769Z,19.49
2019-06-27T18:31:11.529Z,19.25
2019-06-27T18:33:39.927Z,19.33
2019-06-27T18:36:08.392Z,19.30
2019-06-27T18:38:36.831Z,19.25
2019-06-27T18:41:05.320Z,19.24
2019-06-27T18:43:33.794Z,19.23
2019-06-27T18:46:02.184Z,19.18
2019-06-27T18:48:30.637Z,19.18
2019-06-27T18:50:59.149Z,19.06
2019-06-27T18:53:27.551Z,18.93
2019-06-27T18:55:56.016Z,18.79
2019-06-27T18:58:24.447Z,18.61
2019-06-27T19:00:52.905Z,18.72
2019-06-27T19:03:21.365Z,18.62
2019-06-27T19:05:49.936Z,18.52
2019-06-27T19:08:18.375Z,18.54
2019-06-27T19:10:46.815Z,18.46
2019-06-27T19:13:15.233Z,18.36
2019-06-27T19:15:43.670Z,18.29
2019-06-27T19:18:29.965Z,18.25
2019-06-27T19:21:00.082Z,18.13
2019-06-27T19:23:33.192Z,18.15
2019-06-27T19:26:02.021Z,18.11
2019-06-27T19:28:30.441Z,17.97
2019-06-27T19:30:58.877Z,17.81
2019-06-27T19:33:27.306Z,17.74
2019-06-27T19:35:55.725Z,17.71
2019-06-27T19:38:26.293Z,17.65
2019-06-27T19:40:54.786Z,17.62
2019-06-27T19:43:27.638Z,17.57
2019-06-27T19:45:53.382Z,17.50
2019-06-27T19:48:21.806Z,17.45
2019-06-27T19:50:50.239Z,17.50
2019-06-27T19:53:18.735Z,17.35
2019-06-27T19:55:47.160Z,17.44
2019-06-27T19:58:15.602Z,17.41
2019-06-27T20:00:44.559Z,17.27
2019-06-27T20:03:13.459Z,17.28
2019-06-27T20:05:43.669Z,17.16
2019-06-27T20:08:19.435Z,17.14
2019-06-27T20:10:46.226Z,17.09
2019-06-27T20:13:17.557Z,17.13
2019-06-27T20:15:46.977Z,17.06
2019-06-27T20:18:15.630Z,17.06
2019-06-27T20:20:44.208Z,16.90
2019-06-27T20:23:13.248Z,16.86
2019-06-27T20:25:42.521Z,16.82
2019-06-27T20:28:12.299Z,16.83
2019-06-27T20:30:44.293Z,16.66
2019-06-27T20:33:13.210Z,16.69
2019-06-27T20:35:42.353Z,16.69
2019-06-27T20:38:10.902Z,16.67
2019-06-27T20:40:39.390Z,16.59
2019-06-27T20:43:07.840Z,16.44
2019-06-27T20:45:36.931Z,16.44
2019-06-27T20:48:05.373Z,16.46
2019-06-27T20:50:33.946Z,16.42
2019-06-27T20:53:02.360Z,16.44
2019-06-27T20:55:31.029Z,16.33
2019-06-27T20:58:00.225Z,16.29
2019-06-27T21:00:34.992Z,16.09
2019-06-27T21:03:04.705Z,16.01
2019-06-27T21:05:33.488Z,16.08
2019-06-27T21:08:01.925Z,16.02
2019-06-27T21:10:30.357Z,15.99
2019-06-27T21:12:58.778Z,15.93
2019-06-27T21:15:27.281Z,15.87
2019-06-27T21:17:56.009Z,15.82
2019-06-27T21:20:24.601Z,15.88
2019-06-27T21:22:53.029Z,15.87
2019-06-27T21:25:21.571Z,15.85
2019-06-27T21:27:50.007Z,15.81
2019-06-27T21:30:19.152Z,15.72
2019-06-27T21:32:48.565Z,15.73
2019-06-27T21:35:17.261Z,15.71
2019-06-27T21:37:45.705Z,15.68
2019-06-27T21:40:20.249Z,15.70
2019-06-27T21:42:48.667Z,15.57
2019-06-27T21:45:17.631Z,15.67
2019-06-27T21:47:46.066Z,15.60
2019-06-27T21:50:14.600Z,15.55
2019-06-27T21:52:43.023Z,15.55
2019-06-27T21:55:11.601Z,15.58
2019-06-27T21:57:40.034Z,15.46
2019-06-27T22:00:09.317Z,15.46
2019-06-27T22:02:37.782Z,15.47
2019-06-27T22:05:07.127Z,15.41
2019-06-27T22:07:35.788Z,15.37
2019-06-27T22:10:06.290Z,15.27
2019-06-27T22:12:35.000Z,15.25
2019-06-27T22:15:04.195Z,15.24
2019-06-27T22:17:32.653Z,15.16
2019-06-27T22:20:14.550Z,15.24
2019-06-27T22:22:31.385Z,15.30
2019-06-27T22:24:59.815Z,15.20
2019-06-27T22:27:28.262Z,15.17
2019-06-27T22:29:56.676Z,15.28
2019-06-27T22:32:25.359Z,15.19
2019-06-27T22:34:53.796Z,15.26
2019-06-27T22:37:24.347Z,15.12
2019-06-27T22:40:11.892Z,15.20
2019-06-27T22:42:59.461Z,15.23
2019-06-27T22:45:45.955Z,15.28
2019-06-27T22:48:14.085Z,15.27
2019-06-27T22:50:46.659Z,15.35
2019-06-27T22:53:16.758Z,15.31
2019-06-27T22:55:45.170Z,15.37
2019-06-27T22:58:13.609Z,15.40
2019-06-27T23:00:42.035Z,15.32
2019-06-27T23:03:10.512Z,15.28
2019-06-27T23:05:39.794Z,15.35
2019-06-27T23:08:08.224Z,15.35
2019-06-27T23:10:36.676Z,15.40
2019-06-27T23:13:05.244Z,15.43
2019-06-27T23:15:33.679Z,15.47
2019-06-27T23:18:02.131Z,15.40
2019-06-27T23:20:30.546Z,15.39
2019-06-27T23:22:59.036Z,15.40
2019-06-27T23:25:27.525Z,15.43
2019-06-27T23:27:55.941Z,15.48
2019-06-27T23:30:24.423Z,15.39
2019-06-27T23:32:52.882Z,15.39
2019-06-27T23:35:21.320Z,15.41
2019-06-27T23:37:49.755Z,15.37
2019-06-27T23:40:19.432Z,15.35
2019-06-27T23:42:47.868Z,15.35
2019-06-27T23:45:16.288Z,15.34
2019-06-27T23:47:44.767Z,15.30
2019-06-27T23:50:13.535Z,15.27
2019-06-27T23:52:41.958Z,15.28
2019-06-27T23:55:10.517Z,15.30
2019-06-27T23:57:38.941Z,15.28
